Time;durP1;ratioP1;P1;durP2;ratioP2;P2;SDS_P1;SDS_P2;PMS_P1;PMS_P2;Temp;Humidity;BMP_temperature;BMP_pressure;BME280_temperature;BME280_humidity;BME280_pressure;Samples;Min_cycle;Max_cycle;Signal;HPM_P1;HPM_P2
2023/10/22 00:00:46;;;;;;;8.43;1.73;;;13.70;99.90;;;;;;5035100;28;20057;-76
2023/10/22 00:03:12;;;;;;;2.83;1.13;;;13.70;99.90;;;;;;5035115;28;20029;-73
2023/10/22 00:05:38;;;;;;;2.92;0.73;;;13.60;99.90;;;;;;5035161;28;20040;-71
2023/10/22 00:08:04;;;;;;;4.38;1.30;;;13.60;99.90;;;;;;5035051;28;20022;-74
2023/10/22 00:10:30;;;;;;;2.63;0.17;;;13.60;99.90;;;;;;5035346;28;20052;-75
2023/10/22 00:12:56;;;;;;;0.20;0.20;;;13.60;99.90;;;;;;5033698;28;20553;-74
2023/10/22 00:15:23;;;;;;;2.22;0.63;;;13.60;99.90;;;;;;5035098;28;20162;-73
2023/10/22 00:17:49;;;;;;;4.25;1.02;;;13.60;99.90;;;;;;5035097;28;20028;-72
2023/10/22 00:20:15;;;;;;;2.38;0.50;;;13.70;99.90;;;;;;5034936;28;20557;-73
2023/10/22 00:22:41;;;;;;;1.52;0.70;;;13.80;99.90;;;;;;5032160;28;20029;-72
2023/10/22 00:25:07;;;;;;;2.08;0.55;;;13.70;99.90;;;;;;5034780;28;20076;-73
2023/10/22 00:27:34;;;;;;;3.20;0.30;;;13.70;99.90;;;;;;5034510;28;20041;-73
2023/10/22 00:30:00;;;;;;;0.43;0.43;;;13.70;99.90;;;;;;5034843;28;20026;-72
2023/10/22 00:32:26;;;;;;;1.67;0.85;;;13.70;99.90;;;;;;5034722;28;20064;-72
2023/10/22 00:34:52;;;;;;;2.20;0.82;;;13.70;99.90;;;;;;5034963;28;20056;-72
2023/10/22 00:37:19;;;;;;;0.20;0.20;;;13.70;99.90;;;;;;5033435;28;20108;-72
2023/10/22 00:39:45;;;;;;;0.40;0.32;;;13.70;99.90;;;;;;5017054;28;20116;-72
2023/10/22 00:42:12;;;;;;;0.47;0.47;;;13.80;99.90;;;;;;5032932;28;20038;-73
2023/10/22 00:44:39;;;;;;;0.70;0.70;;;13.70;99.90;;;;;;5034471;28;20025;-73
2023/10/22 00:47:06;;;;;;;0.40;0.40;;;13.70;99.90;;;;;;5034062;28;20064;-72
2023/10/22 00:49:33;;;;;;;4.30;0.63;;;13.70;99.90;;;;;;5030412;28;20060;-72
2023/10/22 00:51:59;;;;;;;8.30;0.40;;;13.70;99.90;;;;;;5033370;28;20605;-72
2023/10/22 00:54:26;;;;;;;0.95;0.47;;;13.70;99.90;;;;;;5034462;28;20108;-73
2023/10/22 00:56:53;;;;;;;1.30;0.65;;;13.80;99.90;;;;;;5034112;28;20492;-72
2023/10/22 00:59:20;;;;;;;0.10;0.10;;;13.70;99.90;;;;;;5032918;28;20025;-72
2023/10/22 01:01:47;;;;;;;5.63;1.30;;;13.60;99.90;;;;;;5032981;28;20584;-72
2023/10/22 01:04:12;;;;;;;1.95;0.40;;;13.70;99.90;;;;;;5034279;28;20026;-73
2023/10/22 01:06:39;;;;;;;5.75;1.25;;;13.80;99.90;;;;;;5032852;28;20041;-72
2023/10/22 01:09:11;;;;;;;1.65;0.38;;;13.70;99.90;;;;;;5032566;28;20080;-72
2023/10/22 01:11:56;;;;;;;0.00;0.00;;;13.70;99.90;;;;;;5033653;28;20493;-72
2023/10/22 01:14:22;;;;;;;1.17;0.75;;;13.70;99.90;;;;;;5032478;28;20036;-72
2023/10/22 01:16:47;;;;;;;0.82;0.50;;;13.70;99.90;;;;;;5033892;28;20018;-73
2023/10/22 01:19:13;;;;;;;0.63;0.30;;;13.70;99.90;;;;;;5032865;28;20056;-73
2023/10/22 01:21:40;;;;;;;0.10;0.10;;;13.70;99.90;;;;;;5032438;28;20035;-72
2023/10/22 01:24:07;;;;;;;0.20;0.20;;;13.80;99.90;;;;;;5032770;28;20025;-72
2023/10/22 01:26:39;;;;;;;0.82;0.80;;;13.80;99.90;;;;;;5033497;28;20042;-72
2023/10/22 01:29:04;;;;;;;1.98;1.25;;;13.80;99.90;;;;;;5032155;28;20018;-72
2023/10/22 01:31:30;;;;;;;0.63;0.38;;;13.80;99.90;;;;;;5032480;28;20040;-73
2023/10/22 01:33:56;;;;;;;4.57;0.88;;;13.80;99.90;;;;;;5015846;28;20108;-72
2023/10/22 01:36:22;;;;;;;1.55;0.40;;;13.80;99.90;;;;;;5032368;28;20116;-72
2023/10/22 01:38:48;;;;;;;0.15;0.15;;;13.80;99.90;;;;;;5031667;28;20060;-73
2023/10/22 01:41:13;;;;;;;0.10;0.10;;;13.80;99.90;;;;;;5022148;28;20056;-72
2023/10/22 01:43:39;;;;;;;0.57;0.57;;;13.80;99.90;;;;;;5033396;28;20060;-72
2023/10/22 01:46:05;;;;;;;0.20;0.20;;;13.80;99.90;;;;;;5032134;28;20067;-73
2023/10/22 01:48:31;;;;;;;5.47;0.50;;;13.80;99.90;;;;;;5028550;28;20392;-72
2023/10/22 01:50:57;;;;;;;4.40;0.65;;;13.70;99.90;;;;;;5033157;28;20103;-73
2023/10/22 01:53:23;;;;;;;2.50;0.68;;;13.70;99.90;;;;;;5033491;28;20017;-72
2023/10/22 01:55:48;;;;;;;8.00;1.75;;;13.70;99.90;;;;;;5031797;28;20048;-73
2023/10/22 01:58:14;;;;;;;5.70;1.52;;;13.50;99.90;;;;;;5031967;28;20049;-72
2023/10/22 02:00:41;;;;;;;1.75;1.55;;;13.50;99.90;;;;;;5031671;28;20401;-72
2023/10/22 02:03:07;;;;;;;1.73;1.08;;;13.50;99.90;;;;;;5033126;28;20019;-73
2023/10/22 02:05:33;;;;;;;1.13;1.02;;;13.40;99.90;;;;;;5031828;28;20045;-72
2023/10/22 02:08:00;;;;;;;3.10;0.80;;;13.40;99.90;;;;;;5033054;28;20025;-73
2023/10/22 02:10:26;;;;;;;0.82;0.45;;;13.30;99.90;;;;;;5032056;28;20037;-73
2023/10/22 02:12:52;;;;;;;2.25;1.90;;;13.30;99.90;;;;;;5031523;28;20116;-73
2023/10/22 02:15:18;;;;;;;2.08;1.65;;;13.20;99.90;;;;;;5032766;28;20037;-73
2023/10/22 02:17:44;;;;;;;2.03;1.83;;;13.20;99.90;;;;;;5031689;28;20033;-73
2023/10/22 02:20:10;;;;;;;1.52;0.60;;;13.00;99.90;;;;;;5031497;28;20013;-73
2023/10/22 02:22:37;;;;;;;1.40;0.88;;;13.10;99.90;;;;;;5031694;28;20064;-72
2023/10/22 02:25:04;;;;;;;2.08;1.88;;;13.20;99.90;;;;;;5031219;28;20025;-73
2023/10/22 02:27:32;;;;;;;0.10;0.10;;;13.10;99.90;;;;;;5032829;28;20037;-74
2023/10/22 02:29:58;;;;;;;1.23;0.98;;;13.00;99.90;;;;;;5032760;28;20103;-73
2023/10/22 02:32:24;;;;;;;0.50;0.50;;;13.10;99.90;;;;;;5032828;28;20486;-73
2023/10/22 02:34:52;;;;;;;4.78;1.77;;;13.00;99.90;;;;;;5032559;28;20063;-73
2023/10/22 02:37:19;;;;;;;1.70;1.38;;;13.10;99.90;;;;;;5031462;28;20061;-73
2023/10/22 02:39:46;;;;;;;2.58;1.33;;;12.90;99.90;;;;;;5032795;28;20374;-73
2023/10/22 02:42:12;;;;;;;2.03;1.45;;;12.80;99.90;;;;;;5024883;28;20026;-73
2023/10/22 02:44:38;;;;;;;2.28;1.42;;;12.80;99.90;;;;;;5032392;28;20030;-74
2023/10/22 02:47:04;;;;;;;5.07;1.77;;;12.80;99.90;;;;;;5030699;28;20061;-73
2023/10/22 02:49:30;;;;;;;2.20;0.85;;;12.80;99.90;;;;;;5032531;28;20195;-73
2023/10/22 02:51:56;;;;;;;1.98;1.85;;;12.90;99.90;;;;;;5014319;28;20033;-73
2023/10/22 02:54:22;;;;;;;1.52;1.25;;;12.90;99.90;;;;;;5032567;28;20402;-73
2023/10/22 02:56:48;;;;;;;1.42;1.33;;;12.70;99.90;;;;;;5030921;28;20033;-73
2023/10/22 02:59:14;;;;;;;0.75;0.75;;;12.70;99.90;;;;;;5032239;28;20028;-73
2023/10/22 03:01:40;;;;;;;1.58;1.35;;;12.60;99.90;;;;;;5032440;28;20029;-73
2023/10/22 03:04:06;;;;;;;0.55;0.32;;;12.60;99.90;;;;;;5031048;28;20049;-73
2023/10/22 03:06:32;;;;;;;1.50;1.05;;;12.60;99.90;;;;;;5030871;28;20073;-73
2023/10/22 03:08:58;;;;;;;2.35;2.05;;;12.50;99.90;;;;;;5030882;28;20356;-73
2023/10/22 03:11:23;;;;;;;1.33;1.23;;;12.40;99.90;;;;;;5032331;28;20037;-73
2023/10/22 03:13:51;;;;;;;0.95;0.65;;;12.40;99.90;;;;;;5032238;28;20034;-73
2023/10/22 03:16:17;;;;;;;0.17;0.17;;;12.40;99.90;;;;;;5030811;28;20482;-73
2023/10/22 03:18:45;;;;;;;0.10;0.10;;;12.40;99.90;;;;;;5032228;28;20057;-73
2023/10/22 03:21:19;;;;;;;0.50;0.50;;;12.40;99.90;;;;;;5031990;28;20021;-73
2023/10/22 03:23:46;;;;;;;0.47;0.47;;;12.30;99.90;;;;;;5032024;28;20458;-73
2023/10/22 03:26:15;;;;;;;0.47;0.47;;;12.30;99.90;;;;;;5030800;28;20025;-72
2023/10/22 03:28:42;;;;;;;0.10;0.10;;;12.50;99.90;;;;;;5032311;28;20033;-73
2023/10/22 03:31:09;;;;;;;0.88;0.82;;;12.50;99.90;;;;;;5030479;28;20067;-73
2023/10/22 03:33:35;;;;;;;0.85;0.60;;;12.40;99.90;;;;;;5032276;28;20096;-73
2023/10/22 03:36:01;;;;;;;0.30;0.30;;;12.30;99.90;;;;;;5015159;28;20026;-73
2023/10/22 03:38:27;;;;;;;0.15;0.15;;;12.30;99.90;;;;;;5035692;28;20048;-73
2023/10/22 03:41:01;;;;;;;0.20;0.20;;;12.20;99.90;;;;;;5034310;28;20033;-73
2023/10/22 03:43:28;;;;;;;0.28;0.28;;;12.40;99.90;;;;;;5031193;28;20474;-72
2023/10/22 03:45:55;;;;;;;1.60;1.13;;;12.30;99.90;;;;;;5030130;28;20025;-73
2023/10/22 03:48:23;;;;;;;0.10;0.10;;;12.20;99.90;;;;;;5030328;28;20032;-73
2023/10/22 03:50:49;;;;;;;0.10;0.10;;;12.20;99.90;;;;;;5017618;28;20026;-74
2023/10/22 03:53:15;;;;;;;4.90;1.27;;;12.10;99.90;;;;;;5034169;28;20117;-73
2023/10/22 03:55:41;;;;;;;0.50;0.50;;;12.20;99.90;;;;;;5035471;28;20034;-73
2023/10/22 03:58:06;;;;;;;6.75;1.77;;;12.20;99.90;;;;;;5035326;28;20032;-73
2023/10/22 04:00:33;;;;;;;0.25;0.25;;;12.20;99.90;;;;;;5035667;28;20500;-73
2023/10/22 04:03:00;;;;;;;4.90;0.95;;;12.30;99.90;;;;;;5035183;28;20091;-73
2023/10/22 04:05:26;;;;;;;0.35;0.32;;;12.30;99.90;;;;;;5034752;28;20025;-73
2023/10/22 04:07:52;;;;;;;1.13;0.60;;;12.30;99.90;;;;;;5035141;28;20083;-73
2023/10/22 04:10:17;;;;;;;0.73;0.40;;;12.40;99.90;;;;;;5035438;28;20018;-72
2023/10/22 04:12:43;;;;;;;0.10;0.10;;;12.50;99.90;;;;;;5035197;28;20044;-73
2023/10/22 04:15:09;;;;;;;0.60;0.60;;;12.50;99.90;;;;;;5034988;28;20068;-73
2023/10/22 04:17:36;;;;;;;1.65;1.27;;;12.40;99.90;;;;;;5035110;28;20036;-73
2023/10/22 04:20:03;;;;;;;0.35;0.35;;;12.50;99.90;;;;;;5034394;28;20029;-73
2023/10/22 04:22:28;;;;;;;2.67;1.10;;;12.60;99.90;;;;;;5035080;28;20033;-73
2023/10/22 04:24:54;;;;;;;0.10;0.10;;;12.70;99.90;;;;;;5035008;28;20036;-73
2023/10/22 04:27:20;;;;;;;0.22;0.22;;;12.60;99.90;;;;;;5030281;28;20030;-73
2023/10/22 04:29:46;;;;;;;0.20;0.20;;;12.40;99.90;;;;;;5025969;28;20018;-72
2023/10/22 04:32:13;;;;;;;1.85;0.65;;;12.40;99.90;;;;;;5034370;28;20041;-72
2023/10/22 04:34:39;;;;;;;0.95;0.73;;;12.40;99.90;;;;;;5034781;28;20038;-72
2023/10/22 04:37:06;;;;;;;0.08;0.08;;;12.40;99.90;;;;;;5033240;28;20397;-73
2023/10/22 04:39:32;;;;;;;1.38;0.25;;;12.40;99.90;;;;;;5034757;28;20037;-75
2023/10/22 04:41:58;;;;;;;0.10;0.10;;;12.30;99.90;;;;;;5034759;28;20026;-73
2023/10/22 04:44:24;;;;;;;0.20;0.20;;;12.40;99.90;;;;;;5033165;28;20075;-72
2023/10/22 04:46:51;;;;;;;0.08;0.08;;;12.40;99.90;;;;;;5033828;28;20478;-72
2023/10/22 04:49:17;;;;;;;1.38;0.57;;;12.40;99.90;;;;;;5032533;28;20096;-73
2023/10/22 04:51:44;;;;;;;0.13;0.13;;;12.60;99.90;;;;;;5034623;28;20037;-73
2023/10/22 04:54:10;;;;;;;0.47;0.10;;;12.70;99.90;;;;;;5034283;28;20025;-72
2023/10/22 04:56:36;;;;;;;0.10;0.10;;;12.80;99.90;;;;;;5033794;28;20025;-73
2023/10/22 04:59:02;;;;;;;0.10;0.10;;;12.70;99.90;;;;;;5033004;28;20390;-73
2023/10/22 05:01:28;;;;;;;0.10;0.10;;;12.70;99.90;;;;;;5019854;28;20080;-73
2023/10/22 05:03:54;;;;;;;0.40;0.40;;;12.70;99.90;;;;;;5012212;28;20025;-73
2023/10/22 05:06:20;;;;;;;0.20;0.20;;;12.50;99.90;;;;;;5013601;28;20044;-73
2023/10/22 05:08:45;;;;;;;1.75;0.77;;;12.50;99.90;;;;;;5013826;28;20057;-73
2023/10/22 05:11:15;;;;;;;0.30;0.25;;;12.40;99.90;;;;;;5014360;28;20080;-73
2023/10/22 05:13:43;;;;;;;1.25;0.22;;;12.40;99.90;;;;;;5014169;28;20034;-73
2023/10/22 05:16:10;;;;;;;0.40;0.40;;;12.50;99.90;;;;;;5014024;28;20022;-73
2023/10/22 05:18:37;;;;;;;0.00;0.00;;;12.70;99.90;;;;;;5008494;28;20040;-73
2023/10/22 05:21:07;;;;;;;0.10;0.10;;;12.70;99.90;;;;;;4995296;28;20026;-72
2023/10/22 05:23:33;;;;;;;0.10;0.10;;;12.70;99.90;;;;;;4994595;28;20157;-73
2023/10/22 05:26:17;;;;;;;1.13;0.73;;;12.60;99.90;;;;;;5012603;28;20057;-73
2023/10/22 05:28:43;;;;;;;1.65;0.43;;;12.70;99.90;;;;;;5013604;28;20021;-73
2023/10/22 05:31:20;;;;;;;0.20;0.20;;;12.70;99.90;;;;;;5013666;28;20065;-72
2023/10/22 05:33:46;;;;;;;3.72;0.85;;;12.60;99.90;;;;;;5013812;28;20033;-73
2023/10/22 05:36:20;;;;;;;0.73;0.40;;;12.70;99.90;;;;;;5013803;28;20114;-73
2023/10/22 05:38:49;;;;;;;0.00;0.00;;;12.70;99.90;;;;;;5002004;28;20035;-74
2023/10/22 05:41:25;;;;;;;0.10;0.10;;;12.80;99.90;;;;;;5013478;28;20045;-73
2023/10/22 05:43:56;;;;;;;0.10;0.10;;;12.60;99.90;;;;;;5013437;28;20084;-73
2023/10/22 05:46:25;;;;;;;0.40;0.40;;;12.50;99.90;;;;;;5013324;28;20041;-73
2023/10/22 05:48:51;;;;;;;2.00;0.57;;;12.50;99.90;;;;;;5013402;28;20029;-73
2023/10/22 05:51:18;;;;;;;0.10;0.10;;;12.60;99.90;;;;;;5029217;28;20137;-72
2023/10/22 05:53:44;;;;;;;0.30;0.30;;;12.70;99.90;;;;;;5033042;28;20049;-73
2023/10/22 05:56:11;;;;;;;0.10;0.10;;;12.80;99.90;;;;;;5032005;28;20056;-73
2023/10/22 05:58:39;;;;;;;0.65;0.65;;;12.80;99.90;;;;;;5033181;28;20470;-73
2023/10/22 06:01:08;;;;;;;0.08;0.08;;;12.80;99.90;;;;;;5032913;28;20104;-73
2023/10/22 06:03:34;;;;;;;0.10;0.10;;;12.60;99.90;;;;;;5033119;28;20366;-72
2023/10/22 06:06:00;;;;;;;10.45;4.75;;;12.70;99.90;;;;;;5032964;28;20098;-73
2023/10/22 06:08:26;;;;;;;0.00;0.00;;;12.60;99.90;;;;;;5033050;28;20504;-72
2023/10/22 06:10:52;;;;;;;1.55;1.17;;;12.60;99.90;;;;;;5031979;28;20064;-73
2023/10/22 06:13:18;;;;;;;0.30;0.30;;;12.70;99.90;;;;;;5020997;28;20068;-73
2023/10/22 06:15:45;;;;;;;0.10;0.10;;;12.70;99.90;;;;;;5032750;28;20059;-74
2023/10/22 06:18:12;;;;;;;3.08;2.88;;;12.80;99.90;;;;;;5031685;28;20466;-73
2023/10/22 06:20:38;;;;;;;0.13;0.13;;;12.70;99.90;;;;;;5032639;28;20482;-73
2023/10/22 06:23:05;;;;;;;0.38;0.30;;;12.80;99.90;;;;;;5032477;28;20022;-72
2023/10/22 06:25:32;;;;;;;0.22;0.22;;;12.80;99.90;;;;;;5032435;28;20067;-73
2023/10/22 06:27:59;;;;;;;4.28;0.68;;;12.80;99.90;;;;;;5032938;28;20029;-73
2023/10/22 06:30:26;;;;;;;0.17;0.17;;;12.80;99.90;;;;;;5032313;28;20096;-73
2023/10/22 06:32:53;;;;;;;0.00;0.00;;;12.80;99.90;;;;;;5032657;28;20069;-72
2023/10/22 06:35:23;;;;;;;0.00;0.00;;;12.80;99.90;;;;;;5032439;28;20033;-73
2023/10/22 06:37:51;;;;;;;0.15;0.15;;;12.90;99.90;;;;;;5032997;28;20036;-73
2023/10/22 06:40:20;;;;;;;0.50;0.35;;;13.00;99.90;;;;;;5032815;28;20033;-73
2023/10/22 06:42:48;;;;;;;0.25;0.22;;;13.20;99.90;;;;;;5033026;28;20072;-73
2023/10/22 06:45:14;;;;;;;0.10;0.10;;;13.30;99.90;;;;;;5032178;28;20425;-75
2023/10/22 06:47:40;;;;;;;0.05;0.05;;;13.20;99.90;;;;;;5031256;28;20101;-73
2023/10/22 06:50:08;;;;;;;1.45;1.23;;;13.30;99.90;;;;;;5032501;28;20112;-72
2023/10/22 06:52:34;;;;;;;0.75;0.75;;;13.40;99.90;;;;;;5032836;28;20037;-72
2023/10/22 06:55:00;;;;;;;0.10;0.10;;;13.20;99.90;;;;;;5031134;28;20466;-72
2023/10/22 06:57:27;;;;;;;0.10;0.10;;;13.10;99.90;;;;;;5032622;28;20121;-73
2023/10/22 06:59:56;;;;;;;0.00;0.00;;;13.10;99.90;;;;;;5030974;28;20037;-73
2023/10/22 07:02:23;;;;;;;1.05;1.02;;;13.30;99.90;;;;;;5032446;28;20053;-73
2023/10/22 07:04:52;;;;;;;1.17;1.17;;;13.20;99.90;;;;;;5032474;28;20030;-73
2023/10/22 07:07:19;;;;;;;0.55;0.55;;;13.20;99.90;;;;;;5032154;28;20029;-73
2023/10/22 07:09:44;;;;;;;0.10;0.10;;;13.30;99.90;;;;;;5032745;28;20425;-76
2023/10/22 07:12:10;;;;;;;0.20;0.20;;;13.50;99.90;;;;;;5035656;28;20044;-76
2023/10/22 07:14:36;;;;;;;0.08;0.08;;;13.40;99.90;;;;;;5036082;28;20049;-73
2023/10/22 07:17:02;;;;;;;0.35;0.35;;;13.40;99.90;;;;;;5036009;28;20026;-73
2023/10/22 07:19:28;;;;;;;0.00;0.00;;;13.30;99.90;;;;;;5036234;28;20478;-72
2023/10/22 07:21:54;;;;;;;0.30;0.30;;;13.30;99.90;;;;;;5034955;28;20026;-73
2023/10/22 07:24:20;;;;;;;0.10;0.10;;;13.40;99.90;;;;;;5036314;28;20025;-73
2023/10/22 07:26:46;;;;;;;0.70;0.20;;;13.50;99.90;;;;;;5021896;28;20112;-73
2023/10/22 07:29:12;;;;;;;0.68;0.68;;;13.50;99.90;;;;;;5035568;28;20044;-73
2023/10/22 07:31:39;;;;;;;0.30;0.30;;;13.40;99.90;;;;;;5034860;28;20112;-73
2023/10/22 07:34:05;;;;;;;0.40;0.40;;;13.30;99.90;;;;;;5016924;28;20113;-73
2023/10/22 07:36:31;;;;;;;1.75;0.65;;;13.50;99.90;;;;;;5015319;28;20120;-73
2023/10/22 07:38:57;;;;;;;0.05;0.05;;;13.60;99.90;;;;;;5015028;28;20112;-72
2023/10/22 07:41:24;;;;;;;0.00;0.00;;;13.60;99.90;;;;;;5014617;28;20522;-72
2023/10/22 07:43:49;;;;;;;0.55;0.20;;;13.70;99.90;;;;;;5014934;28;20034;-72
2023/10/22 07:46:16;;;;;;;0.10;0.10;;;13.70;99.90;;;;;;5006755;28;20038;-72
2023/10/22 07:48:42;;;;;;;0.90;0.50;;;13.50;99.90;;;;;;5010395;28;20033;-73
2023/10/22 07:51:17;;;;;;;0.00;0.00;;;13.40;99.90;;;;;;5016290;28;20040;-72
2023/10/22 07:53:44;;;;;;;0.25;0.25;;;13.50;99.90;;;;;;5009888;28;20022;-72
2023/10/22 07:56:11;;;;;;;0.05;0.05;;;13.50;99.90;;;;;;5002748;28;20065;-72
2023/10/22 07:58:38;;;;;;;1.73;0.40;;;13.60;99.90;;;;;;5006093;28;20026;-72
2023/10/22 08:01:06;;;;;;;0.70;0.32;;;13.70;99.90;;;;;;4999132;28;20033;-72
2023/10/22 08:03:33;;;;;;;11.32;1.75;;;13.60;99.90;;;;;;5011710;28;20024;-72
2023/10/22 08:06:00;;;;;;;0.20;0.20;;;13.50;99.90;;;;;;5013541;28;20117;-72
2023/10/22 08:08:26;;;;;;;0.15;0.15;;;13.60;99.90;;;;;;5014179;28;20037;-72
2023/10/22 08:11:00;;;;;;;0.10;0.10;;;13.70;99.90;;;;;;5014451;28;20037;-73
2023/10/22 08:13:26;;;;;;;1.65;0.82;;;13.90;99.90;;;;;;5014522;28;20029;-72
2023/10/22 08:15:52;;;;;;;0.35;0.30;;;13.80;99.90;;;;;;5014677;28;20121;-72
2023/10/22 08:18:19;;;;;;;1.50;0.93;;;13.70;99.90;;;;;;5014582;28;20026;-71
2023/10/22 08:20:44;;;;;;;0.00;0.00;;;13.70;99.90;;;;;;5011388;28;20057;-71
2023/10/22 08:23:10;;;;;;;0.30;0.30;;;13.80;99.90;;;;;;5013437;28;20050;-71
2023/10/22 08:25:37;;;;;;;0.10;0.10;;;14.00;99.90;;;;;;5013806;28;20065;-71
2023/10/22 08:28:03;;;;;;;0.10;0.10;;;14.20;99.90;;;;;;5013762;28;20033;-71
2023/10/22 08:30:28;;;;;;;3.15;0.82;;;14.20;99.90;;;;;;5013914;28;20101;-73
2023/10/22 08:32:54;;;;;;;9.32;6.35;;;14.10;99.90;;;;;;5012748;28;20475;-73
2023/10/22 08:35:21;;;;;;;1.55;1.17;;;13.90;99.90;;;;;;5013307;28;20041;-73
2023/10/22 08:37:47;;;;;;;0.00;0.00;;;13.90;99.90;;;;;;5012602;28;20040;-75
2023/10/22 08:40:13;;;;;;;0.73;0.55;;;14.10;99.90;;;;;;5014226;28;20398;-75
2023/10/22 08:42:39;;;;;;;0.77;0.75;;;14.20;99.90;;;;;;5011607;28;20038;-74
2023/10/22 08:45:09;;;;;;;0.10;0.10;;;14.10;99.90;;;;;;5012769;28;20037;-74
2023/10/22 08:47:36;;;;;;;1.60;0.17;;;14.20;99.90;;;;;;5012467;28;20037;-75
2023/10/22 08:50:02;;;;;;;0.00;0.00;;;14.40;99.90;;;;;;5016571;28;20060;-74
2023/10/22 08:52:28;;;;;;;0.00;0.00;;;14.50;99.90;;;;;;5018316;28;20030;-74
2023/10/22 08:54:54;;;;;;;0.38;0.38;;;14.50;99.90;;;;;;5025322;28;20378;-73
2023/10/22 08:57:22;;;;;;;0.32;0.32;;;14.40;99.90;;;;;;5030128;28;20540;-74
2023/10/22 08:59:48;;;;;;;5.00;2.08;;;14.60;99.90;;;;;;5031566;28;20093;-74
2023/10/22 09:02:16;;;;;;;3.33;2.22;;;14.50;99.90;;;;;;5017886;28;20109;-74
2023/10/22 09:04:43;;;;;;;0.63;0.57;;;14.40;99.90;;;;;;5019763;28;20029;-75
2023/10/22 09:07:09;;;;;;;1.85;1.17;;;14.30;99.90;;;;;;5032513;28;20029;-74
2023/10/22 09:09:38;;;;;;;0.75;0.55;;;14.30;99.90;;;;;;5032734;28;20029;-73
2023/10/22 09:12:10;;;;;;;0.32;0.32;;;14.30;99.90;;;;;;5033790;28;20470;-74
2023/10/22 09:14:36;;;;;;;0.57;0.32;;;14.50;99.90;;;;;;5033691;28;20030;-76
2023/10/22 09:17:24;;;;;;;0.10;0.10;;;14.80;99.90;;;;;;5032875;28;20033;-74
2023/10/22 09:19:51;;;;;;;0.10;0.10;;;14.90;99.90;;;;;;5033612;28;20030;-73
2023/10/22 09:22:26;;;;;;;0.10;0.10;;;14.90;99.90;;;;;;5034035;28;20024;-75
2023/10/22 09:24:56;;;;;;;0.75;0.20;;;15.00;99.90;;;;;;5032169;28;20040;-73
2023/10/22 09:27:27;;;;;;;0.73;0.73;;;14.60;99.90;;;;;;5033559;28;20095;-73
2023/10/22 09:29:58;;;;;;;2.40;1.15;;;14.60;99.90;;;;;;5029422;28;20023;-72
2023/10/22 09:32:25;;;;;;;0.00;0.00;;;14.30;99.90;;;;;;5033424;28;20116;-73
2023/10/22 09:34:51;;;;;;;0.00;0.00;;;14.60;99.90;;;;;;5033081;28;20029;-74
2023/10/22 09:37:18;;;;;;;0.10;0.10;;;14.60;99.90;;;;;;5011849;28;20034;-75
2023/10/22 09:39:45;;;;;;;0.15;0.15;;;14.70;99.90;;;;;;5015262;28;20463;-72
2023/10/22 09:42:13;;;;;;;0.10;0.10;;;14.70;99.90;;;;;;5013171;28;20033;-74
2023/10/22 09:44:40;;;;;;;0.10;0.10;;;14.80;99.90;;;;;;5012716;28;20032;-73
2023/10/22 09:47:07;;;;;;;16.98;1.30;;;14.70;99.90;;;;;;5012169;28;20112;-73
2023/10/22 09:49:35;;;;;;;1.00;0.57;;;14.60;99.90;;;;;;5014094;28;20018;-75
2023/10/22 09:52:03;;;;;;;0.08;0.08;;;14.70;99.90;;;;;;5025540;28;20050;-75
2023/10/22 09:54:39;;;;;;;1.10;0.63;;;14.40;99.90;;;;;;5015392;28;20030;-76
2023/10/22 09:57:09;;;;;;;0.20;0.20;;;14.10;99.90;;;;;;5015392;28;20455;-72
2023/10/22 09:59:36;;;;;;;0.20;0.20;;;14.00;99.90;;;;;;5027616;28;20029;-73
2023/10/22 10:02:03;;;;;;;0.28;0.28;;;14.30;99.90;;;;;;5012708;28;20018;-72
2023/10/22 10:04:34;;;;;;;0.13;0.13;;;13.90;99.90;;;;;;5012910;28;20033;-72
2023/10/22 10:07:02;;;;;;;4.43;1.17;;;13.90;99.90;;;;;;5011210;28;20061;-73
2023/10/22 10:09:30;;;;;;;0.10;0.10;;;14.00;99.90;;;;;;5012486;28;20101;-74
2023/10/22 10:11:58;;;;;;;0.20;0.20;;;14.00;99.90;;;;;;5011540;28;20030;-74
2023/10/22 10:14:49;;;;;;;0.00;0.00;;;14.30;99.90;;;;;;5013319;28;20026;-73
2023/10/22 10:17:19;;;;;;;0.00;0.00;;;14.50;99.90;;;;;;5013001;28;20030;-73
2023/10/22 10:19:47;;;;;;;0.10;0.10;;;14.50;99.90;;;;;;5013177;28;20022;-72
2023/10/22 10:22:38;;;;;;;0.00;0.00;;;14.80;99.90;;;;;;4998407;28;20033;-72
2023/10/22 10:25:34;;;;;;;0.10;0.10;;;14.80;99.90;;;;;;5020826;28;20397;-73
2023/10/22 10:28:08;;;;;;;0.35;0.35;;;14.70;99.90;;;;;;4997286;28;20068;-72
2023/10/22 10:30:36;;;;;;;0.05;0.05;;;14.70;99.90;;;;;;5012692;28;20033;-72
2023/10/22 10:33:02;;;;;;;0.10;0.10;;;14.70;99.90;;;;;;5013032;28;20068;-72
2023/10/22 10:35:29;;;;;;;0.30;0.30;;;14.50;99.90;;;;;;5012474;28;20080;-73
2023/10/22 10:38:19;;;;;;;0.75;0.55;;;14.50;99.90;;;;;;5012615;28;20025;-72
2023/10/22 10:40:55;;;;;;;0.10;0.10;;;14.60;99.90;;;;;;5002745;28;20490;-72
2023/10/22 10:44:19;;;;;;;0.17;0.17;;;14.90;99.90;;;;;;5012854;28;20055;-72
2023/10/22 10:46:45;;;;;;;9.00;0.55;;;15.20;99.90;;;;;;4986035;28;20042;-72
2023/10/22 10:49:11;;;;;;;0.10;0.10;;;15.70;99.90;;;;;;4973420;28;20093;-72
2023/10/22 10:51:37;;;;;;;0.10;0.10;;;15.50;99.90;;;;;;4994203;28;20080;-72
2023/10/22 10:54:08;;;;;;;0.03;0.03;;;15.90;99.90;;;;;;5032804;28;20029;-72
2023/10/22 10:56:50;;;;;;;0.13;0.13;;;16.70;99.90;;;;;;5032351;28;20033;-72
2023/10/22 10:59:30;;;;;;;0.20;0.20;;;16.60;99.90;;;;;;5032688;28;20037;-72
2023/10/22 11:02:07;;;;;;;0.20;0.20;;;16.80;99.90;;;;;;5032343;28;20097;-72
2023/10/22 11:04:36;;;;;;;0.45;0.30;;;16.80;99.90;;;;;;5032416;28;20026;-72
2023/10/22 11:07:02;;;;;;;0.38;0.22;;;17.40;99.90;;;;;;5030827;28;20034;-72
2023/10/22 11:09:30;;;;;;;0.85;0.40;;;17.10;99.90;;;;;;5031208;28;20041;-72
2023/10/22 11:12:00;;;;;;;0.80;0.50;;;16.20;99.90;;;;;;5032293;28;20116;-71
2023/10/22 11:14:26;;;;;;;0.88;0.88;;;15.80;99.90;;;;;;5032325;28;20040;-72
2023/10/22 11:16:54;;;;;;;0.63;0.63;;;15.50;99.90;;;;;;5030892;28;20029;-72
2023/10/22 11:19:25;;;;;;;0.32;0.32;;;15.30;99.90;;;;;;5031973;28;20037;-72
2023/10/22 11:21:54;;;;;;;1.15;0.57;;;15.20;99.90;;;;;;5031026;28;20042;-72
2023/10/22 11:24:27;;;;;;;0.63;0.38;;;15.20;99.90;;;;;;5032565;28;20013;-73
2023/10/22 11:26:53;;;;;;;0.20;0.20;;;15.50;99.90;;;;;;5031973;28;20037;-73
2023/10/22 11:29:19;;;;;;;0.95;0.63;;;15.60;99.90;;;;;;5032434;28;20102;-72
2023/10/22 11:31:57;;;;;;;0.00;0.00;;;15.60;99.90;;;;;;5032041;28;20091;-72
2023/10/22 11:34:24;;;;;;;0.20;0.20;;;15.80;99.90;;;;;;5032107;28;20030;-73
2023/10/22 11:36:57;;;;;;;0.30;0.30;;;15.80;99.90;;;;;;5030907;28;20035;-73
2023/10/22 11:39:33;;;;;;;0.93;0.30;;;15.80;99.90;;;;;;5018225;28;20096;-72
2023/10/22 11:41:59;;;;;;;0.30;0.30;;;15.70;99.90;;;;;;5032247;28;20076;-72
2023/10/22 11:44:35;;;;;;;0.05;0.05;;;15.30;99.90;;;;;;5030952;28;20022;-72
2023/10/22 11:47:25;;;;;;;4.03;0.65;;;15.60;99.90;;;;;;5031914;28;20490;-72
2023/10/22 11:49:54;;;;;;;1.20;0.43;;;15.90;99.90;;;;;;5008418;28;20386;-72
2023/10/22 11:52:38;;;;;;;0.28;0.28;;;16.30;99.90;;;;;;5031979;28;20037;-72
2023/10/22 11:55:05;;;;;;;0.30;0.30;;;16.40;99.90;;;;;;5031792;28;20017;-73
2023/10/22 11:57:32;;;;;;;0.47;0.45;;;17.00;99.90;;;;;;5034198;28;20037;-72
2023/10/22 11:59:58;;;;;;;0.30;0.30;;;17.30;99.90;;;;;;5034360;28;20025;-72
2023/10/22 12:02:24;;;;;;;1.13;0.30;;;17.90;99.90;;;;;;5035458;28;20029;-72
2023/10/22 12:04:49;;;;;;;0.20;0.20;;;17.30;99.90;;;;;;5035101;28;20056;-72
2023/10/22 12:07:15;;;;;;;0.68;0.38;;;16.50;99.90;;;;;;5035155;28;20038;-72
2023/10/22 12:09:43;;;;;;;0.45;0.13;;;16.20;99.90;;;;;;5033986;28;20099;-72
2023/10/22 12:12:08;;;;;;;5.15;0.52;;;16.90;99.90;;;;;;5017520;28;20104;-72
2023/10/22 12:14:36;;;;;;;0.03;0.03;;;17.60;99.90;;;;;;5035462;28;20056;-72
2023/10/22 12:17:02;;;;;;;0.55;0.47;;;17.40;99.90;;;;;;5034799;28;20041;-73
2023/10/22 12:19:28;;;;;;;0.00;0.00;;;17.40;99.90;;;;;;5034985;28;20061;-72
2023/10/22 12:21:54;;;;;;;0.00;0.00;;;17.10;99.90;;;;;;5017230;28;20024;-73
2023/10/22 12:24:19;;;;;;;0.00;0.00;;;16.90;99.90;;;;;;5017397;28;20045;-72
2023/10/22 12:26:45;;;;;;;1.33;0.15;;;16.70;99.90;;;;;;5035064;28;20049;-72
2023/10/22 12:29:11;;;;;;;2.80;0.73;;;16.60;99.90;;;;;;5033754;28;20030;-72
2023/10/22 12:31:37;;;;;;;2.20;0.25;;;16.80;99.90;;;;;;5034817;28;20539;-72
2023/10/22 12:34:03;;;;;;;0.00;0.00;;;17.20;99.90;;;;;;5034442;28;20025;-72
2023/10/22 12:36:29;;;;;;;0.00;0.00;;;17.50;99.90;;;;;;5034935;28;20108;-72
2023/10/22 12:38:55;;;;;;;0.00;0.00;;;18.00;99.90;;;;;;5034484;28;20032;-72
2023/10/22 12:41:21;;;;;;;0.43;0.32;;;18.20;99.90;;;;;;5034838;28;20441;-70
2023/10/22 12:43:47;;;;;;;0.00;0.00;;;19.00;99.90;;;;;;5034633;28;20033;-72
2023/10/22 12:46:13;;;;;;;0.30;0.30;;;19.30;99.90;;;;;;5034599;28;20033;-72
2023/10/22 12:48:39;;;;;;;0.10;0.10;;;19.20;99.90;;;;;;5033086;28;20487;-72